Eau Claire, WI

12:05 PM CST on February 14, 2016 (GMT -0600)
Chippewa Valley Regional | | Change Station
CLOSE
Current Station
Airport
Location: Eau Claire,
Elevation: 906 ft
Nearby Weather Stations

Elev 906 ft 44.87 °N, 91.48 °W | Updated 9 minutes ago

Scattered Clouds
Scattered Clouds
14 °F
Feels Like -2 °F
N
16
Wind Variable Wind from SE

Today
High -- | Low -- °F
--% Chance of Precip.
Yesterday
High -- | Low -- °F
Precip. -- in
Pressure 30.14 in
Visibility 10.0 miles
Clouds Few 2000 ft
Scattered Clouds 3400 ft
Windchill -2 °F
Dew Point 5 °F
Humidity 67%
Rainfall 0.00 in
Snow Depth Not available.
7:08 AM 5:32 PM
Waxing Crescent, 44% visible
METAR KEAU 141756Z 14014KT 10SM FEW020 SCT034 M10/M15 A3007 RMK AO2 SNE26 SLP205 P0000 60000 T11001150 11100 21167 58021
Pressure 30.14 in
Visibility 10.0 miles
Clouds Few 2000 ft
Scattered Clouds 3400 ft
Windchill -2 °F
Dew Point 5 °F
Humidity 67%
Rainfall 0.00 in
Snow Depth Not available.
7:08 AM 5:32 PM
Waxing Crescent, 44% visible
METAR KEAU 141756Z 14014KT 10SM FEW020 SCT034 M10/M15 A3007 RMK AO2 SNE26 SLP205 P0000 60000 T11001150 11100 21167 58021

10-Day Weather Forecast

Almanac

Astronomy

Feb. 14, 2016 Rise Set
Actual Time
Civil Twilight
Nautical Twilight
Astronomical Twilight
Moon
Length of Visible Light
Length of Day
Tomorrow will be .
, % of the Moon is Illuminated

Today's Extremes

State Highs State Lows

Community

WunderPhotos

Upload Photos

1,892,866 photos uploaded!

WunderBlog® & News

Nearby

Air Quality

  Air Quality AQ Index Pollutant
Not available.

Snow Depth

Station Depth Elevation

Earthquake Activity

City Distance Mag. Time & Date
Minimum magnitude displayed is 2.5.

Coastal Water Temperatures

Place Temperature

Stations

Nearby Weather Stations

Station Location Temp. Windchill Dew Point Humidity Wind Precip. Elev Updated Type
                   

Watches & Warnings

There are currently no watches in effect.